KLOZ

London-Corbin Arpt-Magee Field Airport

London, Kentucky, USA
KLOZ 142055Z 1421/1518 09007KT 3SM -RA SCT035 OVC060 FM150000 08006KT 6SM -RA OVC025 FM151100 VRB03KT 3SM -RA OVC010 FM151200 VRB03KT P6SM OVC003 FM151500 VRB04KT P6SM OVC008
Issued Valid From Valid To
Dec-14 @ 20:55 UTC
(an hour ago)
Dec-14 @ 21:00 UTC
(an hour ago)
Dec-15 @ 18:00 UTC
(in 20 hours)
Dec-14 @ 21:00 to Dec-15 @ 00:00
KLOZ 142055Z 1421/1518 09007KT 3SM -RA SCT035 OVC060
Wind Visibility Clouds Conditions
90° at 7 knots 3 miles
  • Scattered at 3,500' AGL
  • Overcast at 6,000' AGL
  • Light Rain
From Dec-15 @ 00:00 to Dec-15 @ 11:00
FM150000 08006KT 6SM -RA OVC025
Wind Visibility Clouds Conditions
80° at 6 knots 6 miles
  • Overcast at 2,500' AGL
  • Light Rain
From Dec-15 @ 11:00 to Dec-15 @ 12:00
FM151100 VRB03KT 3SM -RA OVC010
Wind Visibility Clouds Conditions
Variable at 3 knots 3 miles
  • Overcast at 1,000' AGL
  • Light Rain
From Dec-15 @ 12:00 to Dec-15 @ 15:00
FM151200 VRB03KT P6SM OVC003
Wind Visibility Clouds
Variable at 3 knots Greater than 6 miles
  • Overcast at 300' AGL
From Dec-15 @ 15:00 to Dec-15 @ 18:00
FM151500 VRB04KT P6SM OVC008
Wind Visibility Clouds
Variable at 4 knots Greater than 6 miles
  • Overcast at 800' AGL
KLOZ 142055Z 1421/1518 09007KT 3SM -RA SCT035 OVC060 FM150000 08006KT 6SM -RA OVC025 FM151100 VRB03KT 3SM -RA OVC010 FM151200 VRB03KT P6SM OVC003 FM151500 VRB04KT P6SM OVC008
Issued Dec-14 @ 20:55 UTC
(an hour ago)
Valid From Dec-14 @ 21:00 UTC
(an hour ago)
Valid To Dec-15 @ 18:00 UTC
(in 20 hours)
Dec-14 @ 21:00 - Dec-15 @ 00:00
Wind Visibility
90° at 7 knots 3 miles
Clouds
  • Scattered at 3,500' AGL
  • Overcast at 6,000' AGL
Conditions
  • Light Rain
From Dec-15 @ 00:00 - Dec-15 @ 11:00
Wind Visibility
80° at 6 knots 6 miles
Clouds
  • Overcast at 2,500' AGL
Conditions
  • Light Rain
From Dec-15 @ 11:00 - Dec-15 @ 12:00
Wind Visibility
Variable at 3 knots 3 miles
Clouds
  • Overcast at 1,000' AGL
Conditions
  • Light Rain
From Dec-15 @ 12:00 - Dec-15 @ 15:00
Wind Visibility
Variable at 3 knots Greater than 6 miles
Clouds
  • Overcast at 300' AGL
From Dec-15 @ 15:00 - Dec-15 @ 18:00
Wind Visibility
Variable at 4 knots Greater than 6 miles
Clouds
  • Overcast at 800' AGL